EW3006 Weather Reports


Display with metric or nautical units.
time (UTC)temp
F
wind
direction
speed
MPH
gust
MPH
rain 1hr
in
rain 24hr
in
rain mn
in
humidity
%
barometer
mb
20181116005015 46 0.0 1.0 0.00 0.00 0.00 51 1014.1
20181116004015 48 0.0 0.0 0.00 0.00 0.00 50 1014.2
20181116003016 49 0.0 1.0 0.00 0.00 0.00 49 1014.2
20181116002016 51 90 1.0 1.0 0.00 0.00 0.00 45 1014.3
20181116001015 52 0.0 1.0 0.00 0.00 0.00 45 1014.2
20181116000015 53 0.0 1.0 0.00 0.00 0.00 43 1014.2
20181115235016 55 0.0 1.0 0.00 0.00 0.00 41 1014.4
20181115234016 56 0.0 1.0 0.00 0.00 0.00 40 1014.3
20181115233015 57 0.0 0.0 0.00 0.00 0.00 39 1014.4
20181115232016 58 0.0 0.0 0.00 0.00 0.00 38 1014.5
20181115231015 58 0.0 1.0 0.00 0.00 0.00 38 1014.5
20181115230015 58 0.0 1.0 0.00 0.00 0.00 37 1014.6
20181115225015 58 157 1.0 2.0 0.00 0.00 0.00 36 1014.6
20181115224015 58 135 1.0 2.0 0.00 0.00 0.00 36 1014.7
20181115223015 58 135 1.0 2.0 0.00 0.00 0.00 35 1014.7
20181115222015 59 135 1.0 2.0 0.00 0.00 0.00 34 1014.8
20181115221015 59 135 1.0 3.0 0.00 0.00 0.00 35 1014.9
20181115220015 58 135 1.0 2.0 0.00 0.00 0.00 34 1014.9
20181115215015 58 202 1.0 4.0 0.00 0.00 0.00 34 1015.0
20181115214015 58 157 2.0 3.0 0.00 0.00 0.00 34 1015.1
20181115213017 58 202 1.0 3.0 0.00 0.00 0.00 35 1015.3
20181115212017 58 202 1.0 3.0 0.00 0.00 0.00 33 1015.4
20181115211017 58 202 1.0 3.0 0.00 0.00 0.00 31 1015.5
20181115210017 58 202 1.0 2.0 0.00 0.00 0.00 31 1015.7
20181115205017 58 202 1.0 2.0 0.00 0.00 0.00 31 1015.9
20181115204017 57 0.0 2.0 0.00 0.00 0.00 32 1016.0
20181115203017 57 0.0 1.0 0.00 0.00 0.00 33 1016.2
20181115202017 56 0.0 0.0 0.00 0.00 0.00 34 1016.4
20181115201017 55 0.0 1.0 0.00 0.00 0.00 35 1016.6
20181115200017 54 0.0 2.0 0.00 0.00 0.00 36 1016.8
20181115195017 53 0.0 1.0 0.00 0.00 0.00 38 1016.9
20181115194017 52 270 1.0 2.0 0.00 0.00 0.00 38 1017.0
20181115193017 51 0.0 1.0 0.00 0.00 0.00 40 1017.2
20181115192017 50 0.0 1.0 0.00 0.00 0.00 41 1017.3
20181115191017 49 0.0 2.0 0.00 0.00 0.00 42 1017.5
20181115190017 48 270 1.0 2.0 0.00 0.00 0.00 44 1017.6
20181115185017 47 270 1.0 2.0 0.00 0.00 0.00 45 1017.7
20181115184017 47 292 1.0 1.0 0.00 0.00 0.00 46 1017.8
20181115183017 46 0.0 1.0 0.00 0.00 0.00 48 1017.9
20181115182017 45 0.0 1.0 0.00 0.00 0.00 50 1018.0
20181115181017 43 292 1.0 1.0 0.00 0.00 0.00 51 1018.1
20181115180021 42 315 1.0 2.0 0.00 0.00 0.00 54 1018.1
20181115175017 41 0.0 2.0 0.00 0.00 0.00 56 1018.3
20181115174017 40 292 1.0 2.0 0.00 0.00 0.00 57 1018.3
20181115173017 40 292 1.0 2.0 0.00 0.00 0.00 58 1018.3
20181115172017 39 292 1.0 2.0 0.00 0.00 0.00 58 1018.3
20181115171017 38 315 1.0 2.0 0.00 0.00 0.00 60 1018.4
20181115170017 38 315 1.0 3.0 0.00 0.00 0.00 61 1018.4
20181115165017 37 292 1.0 2.0 0.00 0.00 0.00 62 1018.4
20181115164017 36 292 1.0 2.0 0.00 0.00 0.00 63 1018.5
20181115163021 35 0.0 1.0 0.00 0.00 0.00 64 1018.5
20181115162017 33 0.0 1.0 0.00 0.00 0.00 66 1018.5
20181115161018 32 0.0 0.0 0.00 0.00 0.00 63 1018.5
20181115160016 31 0.0 0.0 0.00 0.00 0.00 62 1018.5
20181115155016 31 0.0 0.0 0.00 0.00 0.00 61 1018.6
20181115154016 31 0.0 0.0 0.00 0.00 0.00 59 1018.6
20181115153016 31 0.0 0.0 0.00 0.00 0.00 65 1018.7
20181115152016 30 0.0 0.0 0.00 0.00 0.00 66 1018.6
20181115151016 29 0.0 0.0 0.00 0.00 0.00 58 1018.7
20181115150016 30 0.0 0.0 0.00 0.00 0.00 58 1018.6
20181115145016 30 0.0 0.0 0.00 0.00 0.00 58 1018.5
20181115144016 30 0.0 0.0 0.00 0.00 0.00 57 1018.5
20181115143017 31 0.0 0.0 0.00 0.00 0.00 56 1018.5
20181115142016 31 0.0 0.0 0.00 0.00 0.00 57 1018.5
20181115141016 31 0.0 0.0 0.00 0.00 0.00 55 1018.5
20181115140017 32 45 1.0 1.0 0.00 0.00 0.00 55 1018.5
20181115135016 32 0.0 0.0 0.00 0.00 0.00 54 1018.5
20181115134017 32 0.0 0.0 0.00 0.00 0.00 54 1018.5
20181115133016 32 0.0 0.0 0.00 0.00 0.00 56 1018.5
20181115132017 33 0.0 0.0 0.00 0.00 0.00 55 1018.5
20181115131017 34 0.0 0.0 0.00 0.00 0.00 53 1018.5
20181115130016 35 0.0 0.0 0.00 0.00 0.00 54 1018.6
20181115125016 35 0.0 0.0 0.00 0.00 0.00 54 1018.6
20181115124016 36 0.0 0.0 0.00 0.00 0.00 52 1018.6
20181115123017 37 0.0 0.0 0.00 0.00 0.00 52 1018.7
20181115122016 37 0.0 0.0 0.00 0.00 0.00 51 1018.6
20181115121017 38 0.0 0.0 0.00 0.00 0.00 50 1018.6
20181115120122 38 0.0 0.0 0.00 0.00 0.00 49 1018.6
20181115115016 38 0.0 0.0 0.00 0.00 0.00 48 1018.6
20181115114016 38 0.0 0.0 0.00 0.00 0.00 47 1018.6
20181115113016 38 0.0 0.0 0.00 0.00 0.00 48 1018.7
20181115112016 38 0.0 0.0 0.00 0.00 0.00 49 1018.7
20181115111021 37 0.0 0.0 0.00 0.00 0.00 50 1018.9
20181115110016 37 0.0 0.0 0.00 0.00 0.00 50 1018.9
20181115105016 37 0.0 0.0 0.00 0.00 0.00 50 1019.0
20181115104016 37 0.0 0.0 0.00 0.00 0.00 50 1019.1
20181115103016 37 0.0 0.0 0.00 0.00 0.00 50 1019.1
20181115102016 37 0.0 0.0 0.00 0.00 0.00 48 1019.3
20181115101017 38 0.0 0.0 0.00 0.00 0.00 48 1019.3
20181115100016 38 0.0 0.0 0.00 0.00 0.00 47 1019.4
20181115095016 37 0.0 1.0 0.00 0.00 0.00 50 1019.4
20181115094016 36 0.0 0.0 0.00 0.00 0.00 50 1019.3
20181115093016 35 0.0 1.0 0.00 0.00 0.00 49 1019.3
20181115092016 35 0.0 1.0 0.00 0.00 0.00 49 1019.3
20181115091016 34 45 1.0 2.0 0.00 0.00 0.00 53 1019.3
20181115090016 33 0.0 1.0 0.00 0.00 0.00 52 1019.3
20181115085016 33 45 1.0 1.0 0.00 0.00 0.00 53 1019.3
20181115084016 33 22 1.0 2.0 0.00 0.00 0.00 51 1019.3
20181115083021 33 22 1.0 1.0 0.00 0.00 0.00 51 1019.5
20181115082016 33 225 1.0 1.0 0.00 0.00 0.00 52 1019.4
20181115081016 33 0.0 1.0 0.00 0.00 0.00 51 1019.4
20181115080016 33 0.0 1.0 0.00 0.00 0.00 52 1019.5
20181115075016 34 0.0 1.0 0.00 0.00 0.00 51 1019.4
20181115074016 32 0.0 0.0 0.00 0.00 0.00 54 1019.5
20181115073016 33 0.0 2.0 0.00 0.00 0.00 52 1019.5
20181115072016 33 0.0 1.0 0.00 0.00 0.00 52 1019.5
20181115071016 33 0.0 1.0 0.00 0.00 0.00 52 1019.5
20181115070017 32 0.0 1.0 0.00 0.00 0.00 52 1019.5
20181115065015 32 45 1.0 2.0 0.00 0.00 0.00 52 1019.5
20181115064016 33 45 1.0 1.0 0.00 0.00 0.00 53 1019.5
20181115063016 32 45 1.0 2.0 0.00 0.00 0.00 51 1019.6
20181115062016 33 45 1.0 2.0 0.00 0.00 0.00 51 1019.5
20181115061015 33 0.0 2.0 0.00 0.00 0.00 51 1019.5
20181115060015 33 45 1.0 1.0 0.00 0.00 0.00 52 1019.4
20181115055016 34 45 1.0 1.0 0.00 0.00 0.00 52 1019.5
20181115054016 33 0.0 1.0 0.00 0.00 0.00 53 1019.3
20181115053015 33 22 1.0 1.0 0.00 0.00 0.00 51 1019.2
20181115052016 34 0.0 1.0 0.00 0.00 0.00 51 1019.0
20181115051016 35 0 1.0 1.0 0.00 0.00 0.00 52 1018.9
20181115050016 35 0.0 1.0 0.00 0.00 0.00 50 1019.0
20181115045016 35 0.0 0.0 0.00 0.00 0.00 53 1018.9
20181115044016 35 0.0 0.0 0.00 0.00 0.00 52 1018.8
20181115043015 34 0.0 0.0 0.00 0.00 0.00 51 1018.9
20181115042016 35 0.0 0.0 0.00 0.00 0.00 49 1018.8
20181115041015 35 0.0 0.0 0.00 0.00 0.00 48 1018.8
20181115040016 35 0.0 0.0 0.00 0.00 0.00 49 1018.7
20181115035015 35 0.0 1.0 0.00 0.00 0.00 49 1018.7
20181115034016 36 67 1.0 1.0 0.00 0.00 0.00 48 1018.8
20181115033015 36 0.0 1.0 0.00 0.00 0.00 48 1018.8
20181115032016 36 0.0 0.0 0.00 0.00 0.00 48 1018.7
20181115031015 38 0.0 0.0 0.00 0.00 0.00 47 1018.8
20181115030015 38 0.0 1.0 0.00 0.00 0.00 51 1018.7
20181115025016 39 0.0 0.0 0.00 0.00 0.00 51 1018.8
20181115024016 39 67 1.0 1.0 0.00 0.00 0.00 52 1018.7
20181115023015 39 67 1.0 2.0 0.00 0.00 0.00 54 1018.9
20181115022015 39 0.0 2.0 0.00 0.00 0.00 54 1018.9
20181115021015 40 90 1.0 1.0 0.00 0.00 0.00 52 1018.9
20181115020015 41 0.0 1.0 0.00 0.00 0.00 52 1018.9
20181115015015 41 90 1.0 2.0 0.00 0.00 0.00 53 1018.9
20181115014017 40 90 1.0 2.0 0.00 0.00 0.00 54 1018.9
20181115013016 40 90 1.0 1.0 0.00 0.00 0.00 51 1018.9
20181115012020 41 90 1.0 1.0 0.00 0.00 0.00 48 1018.9
20181115011015 42 90 1.0 1.0 0.00 0.00 0.00 47 1018.8
20181115010017 44 90 2.0 2.0 0.00 0.00 0.00 43 1018.9